createdAt,value
2019-04-27T00:01:10.624Z,4.30
2019-04-27T00:03:55.449Z,4.00
2019-04-27T00:06:25.528Z,3.80
2019-04-27T00:08:55.635Z,4.13
2019-04-27T00:11:25.454Z,4.13
2019-04-27T00:13:53.856Z,3.53
2019-04-27T00:16:24.082Z,3.53
2019-04-27T00:18:56.504Z,3.60
2019-04-27T00:21:37.755Z,3.70
2019-04-27T00:24:06.286Z,3.73
2019-04-27T00:26:34.461Z,3.80
2019-04-27T00:29:03.798Z,3.93
2019-04-27T00:31:33.687Z,3.80
2019-04-27T00:34:03.524Z,3.73
2019-04-27T00:36:39.329Z,3.70
2019-04-27T00:39:25.838Z,3.63
2019-04-27T00:41:54.352Z,3.40
2019-04-27T00:44:23.714Z,3.30
2019-04-27T00:46:53.394Z,3.50
2019-04-27T00:49:21.675Z,3.13
2019-04-27T00:51:49.849Z,3.50
2019-04-27T00:54:18.360Z,3.80
2019-04-27T00:56:48.201Z,3.40
2019-04-27T00:59:23.940Z,3.67
2019-04-27T01:01:59.426Z,3.50
2019-04-27T01:04:29.263Z,3.07
2019-04-27T01:06:57.763Z,3.43
2019-04-27T01:09:25.952Z,2.73
2019-04-27T01:11:54.230Z,3.17
2019-04-27T01:14:23.134Z,3.07
2019-04-27T01:16:51.588Z,3.00
2019-04-27T01:19:19.892Z,2.93
2019-04-27T01:21:49.648Z,3.20
2019-04-27T01:24:18.919Z,2.70
2019-04-27T01:27:04.038Z,3.00
2019-04-27T01:29:33.878Z,3.07
2019-04-27T01:32:02.326Z,3.17
2019-04-27T01:34:30.802Z,3.00
2019-04-27T01:36:59.561Z,3.27
2019-04-27T01:39:28.948Z,3.40
2019-04-27T01:41:58.947Z,3.20
2019-04-27T01:44:29.354Z,3.60
2019-04-27T01:46:57.762Z,3.70
2019-04-27T01:49:26.296Z,3.73
2019-04-27T01:51:54.541Z,4.07
2019-04-27T01:54:24.386Z,3.97
2019-04-27T01:56:52.570Z,4.73
2019-04-27T01:59:21.038Z,4.53
2019-04-27T02:02:08.757Z,4.13
2019-04-27T02:04:55.026Z,4.37
2019-04-27T02:07:23.278Z,4.87
2019-04-27T02:09:51.818Z,4.47
2019-04-27T02:12:20.001Z,4.97
2019-04-27T02:14:49.132Z,5.00
2019-04-27T02:17:18.691Z,4.37
2019-04-27T02:19:47.034Z,4.73
2019-04-27T02:22:15.234Z,4.50
2019-04-27T02:24:43.442Z,4.77
2019-04-27T02:27:12.406Z,4.90
2019-04-27T02:29:42.527Z,5.07
2019-04-27T02:32:12.647Z,4.70
2019-04-27T02:34:51.542Z,4.90
2019-04-27T02:37:20.281Z,4.77
2019-04-27T02:39:50.080Z,4.80
2019-04-27T02:42:20.011Z,4.37
2019-04-27T02:44:49.439Z,4.40
2019-04-27T02:47:20.552Z,4.20
2019-04-27T02:49:50.404Z,4.10
2019-04-27T02:52:31.628Z,4.07
2019-04-27T02:54:59.814Z,4.10
2019-04-27T02:57:30.127Z,4.00
2019-04-27T03:00:00.025Z,3.80
2019-04-27T03:02:30.264Z,3.90
2019-04-27T03:05:00.573Z,3.53
2019-04-27T03:07:30.136Z,3.37
2019-04-27T03:09:59.626Z,4.03
2019-04-27T03:12:30.193Z,3.30
2019-04-27T03:15:00.028Z,3.10
2019-04-27T03:17:45.967Z,3.10
2019-04-27T03:20:24.461Z,2.60
2019-04-27T03:22:54.303Z,2.90
2019-04-27T03:25:26.546Z,2.33
2019-04-27T03:28:00.094Z,2.70
2019-04-27T03:30:31.756Z,2.70
2019-04-27T03:33:03.134Z,2.80
2019-04-27T03:35:35.172Z,2.60
2019-04-27T03:38:00.495Z,2.40
2019-04-27T03:40:30.720Z,2.37
2019-04-27T03:43:00.036Z,2.50
2019-04-27T03:45:29.860Z,2.13
2019-04-27T03:48:00.202Z,2.13
2019-04-27T03:50:32.705Z,2.40
2019-04-27T03:53:10.343Z,2.23
2019-04-27T03:55:50.183Z,2.40
2019-04-27T03:58:23.203Z,2.20
2019-04-27T04:00:52.961Z,2.30
2019-04-27T04:03:21.150Z,2.30
2019-04-27T04:05:49.498Z,2.37
2019-04-27T04:08:19.405Z,2.70
2019-04-27T04:10:49.586Z,2.43
2019-04-27T04:13:25.334Z,2.60
2019-04-27T04:16:00.931Z,2.60
2019-04-27T04:18:31.767Z,2.73
2019-04-27T04:21:00.546Z,2.23
2019-04-27T04:23:30.065Z,2.53
2019-04-27T04:25:59.815Z,2.60
2019-04-27T04:28:29.620Z,2.50
2019-04-27T04:31:00.382Z,2.67
2019-04-27T04:33:30.246Z,2.77
2019-04-27T04:35:59.720Z,2.93
2019-04-27T04:38:30.453Z,2.60
2019-04-27T04:41:12.255Z,2.70
2019-04-27T04:43:45.141Z,2.77
2019-04-27T04:46:31.568Z,3.10
2019-04-27T04:49:00.408Z,2.90
2019-04-27T04:51:30.369Z,3.03
2019-04-27T04:53:59.843Z,2.63
2019-04-27T04:56:29.233Z,3.00
2019-04-27T04:59:00.061Z,2.90
2019-04-27T05:01:29.956Z,2.67
2019-04-27T05:03:59.011Z,2.70
2019-04-27T05:06:29.051Z,2.70
2019-04-27T05:08:57.266Z,2.27
2019-04-27T05:11:25.751Z,2.43
2019-04-27T05:13:54.234Z,2.00
2019-04-27T05:16:22.714Z,2.27
2019-04-27T05:18:50.899Z,2.40
2019-04-27T05:21:20.717Z,2.30
2019-04-27T05:23:48.904Z,2.80
2019-04-27T05:26:19.370Z,2.70
2019-04-27T05:28:49.173Z,3.00
2019-04-27T05:31:17.190Z,2.83
2019-04-27T05:33:45.663Z,3.00
2019-04-27T05:36:14.144Z,2.50
2019-04-27T05:38:46.011Z,2.77
2019-04-27T05:41:12.275Z,2.53
2019-04-27T05:43:58.993Z,3.00
2019-04-27T05:46:47.179Z,2.60
2019-04-27T05:49:22.961Z,2.80
2019-04-27T05:51:51.173Z,2.73
2019-04-27T05:54:19.842Z,2.50
2019-04-27T05:56:49.248Z,2.70
2019-04-27T05:59:19.189Z,2.40
2019-04-27T06:01:49.168Z,3.00
2019-04-27T06:04:19.313Z,2.53
2019-04-27T06:06:49.680Z,3.10
2019-04-27T06:09:19.391Z,2.60
2019-04-27T06:11:48.698Z,2.67
2019-04-27T06:14:19.224Z,2.60
2019-04-27T06:16:50.961Z,2.80
2019-04-27T06:19:19.277Z,2.90
2019-04-27T06:21:47.670Z,3.40
2019-04-27T06:24:15.857Z,3.00
2019-04-27T06:26:44.466Z,2.90
2019-04-27T06:29:12.948Z,2.53
2019-04-27T06:31:41.154Z,2.97
2019-04-27T06:34:09.926Z,3.40
2019-04-27T06:36:38.764Z,3.10
2019-04-27T06:39:09.790Z,2.90
2019-04-27T06:41:39.777Z,3.00
2019-04-27T06:44:11.001Z,3.40
2019-04-27T06:46:38.576Z,3.30
2019-04-27T06:49:09.064Z,3.20
2019-04-27T06:51:40.027Z,3.30
2019-04-27T06:54:09.324Z,3.00
2019-04-27T06:56:38.909Z,3.30
2019-04-27T06:59:08.721Z,3.60
2019-04-27T07:01:38.785Z,6.57
2019-04-27T07:04:10.576Z,3.83
2019-04-27T07:06:37.359Z,3.07
2019-04-27T07:09:09.615Z,3.00
2019-04-27T07:11:39.442Z,2.80
2019-04-27T07:14:11.149Z,2.93
2019-04-27T07:16:39.236Z,2.33
2019-04-27T07:19:09.421Z,2.90
2019-04-27T07:21:39.725Z,3.10
2019-04-27T07:24:08.988Z,2.60
2019-04-27T07:26:39.058Z,3.03
2019-04-27T07:29:09.372Z,2.50
2019-04-27T07:31:39.809Z,2.30
2019-04-27T07:34:09.266Z,3.13
2019-04-27T07:36:39.286Z,3.33
2019-04-27T07:39:11.223Z,3.40
2019-04-27T07:41:38.870Z,3.87
2019-04-27T07:44:10.185Z,3.50
2019-04-27T07:46:38.636Z,3.73
2019-04-27T07:49:06.973Z,4.23
2019-04-27T07:51:35.160Z,4.27
2019-04-27T07:54:03.378Z,3.60
2019-04-27T07:56:31.952Z,4.17
2019-04-27T07:59:00.531Z,4.77
2019-04-27T08:01:29.378Z,4.43
2019-04-27T08:03:59.057Z,4.40
2019-04-27T08:06:29.020Z,4.30
2019-04-27T08:08:59.304Z,4.30
2019-04-27T08:11:29.213Z,4.43
2019-04-27T08:13:58.797Z,4.50
2019-04-27T08:16:29.014Z,4.47
2019-04-27T08:18:57.121Z,4.10
2019-04-27T08:21:25.657Z,4.73
2019-04-27T08:23:53.834Z,4.97
2019-04-27T08:26:23.953Z,4.53
2019-04-27T08:28:58.545Z,5.23
2019-04-27T08:31:28.771Z,5.43
2019-04-27T08:33:58.280Z,4.67
2019-04-27T08:36:28.884Z,5.37
2019-04-27T08:38:58.869Z,5.33
2019-04-27T08:41:27.279Z,5.73
2019-04-27T08:43:55.703Z,5.23
2019-04-27T08:46:23.896Z,5.10
2019-04-27T08:48:52.181Z,5.10
2019-04-27T08:51:20.409Z,5.37
2019-04-27T08:53:50.168Z,5.60
2019-04-27T08:56:19.377Z,5.43
2019-04-27T08:58:49.543Z,5.67
2019-04-27T09:01:18.344Z,6.30
2019-04-27T09:03:49.502Z,5.87
2019-04-27T09:06:18.984Z,6.07
2019-04-27T09:08:49.591Z,6.10
2019-04-27T09:11:20.645Z,5.70
2019-04-27T09:13:50.982Z,5.23
2019-04-27T09:16:23.524Z,6.20
2019-04-27T09:18:53.671Z,5.60
2019-04-27T09:21:21.899Z,5.33
2019-04-27T09:23:50.158Z,2.87
2019-04-27T09:26:18.658Z,2.33
2019-04-27T09:28:46.906Z,1.93
2019-04-27T09:31:15.356Z,2.03
2019-04-27T09:33:43.616Z,2.50
2019-04-27T09:36:12.215Z,2.53
2019-04-27T09:38:40.399Z,2.63
2019-04-27T09:41:08.586Z,2.63
2019-04-27T09:43:36.880Z,2.33
2019-04-27T09:46:05.867Z,3.60
2019-04-27T09:48:36.095Z,2.40
2019-04-27T09:51:06.188Z,2.27
2019-04-27T09:53:36.282Z,1.87
2019-04-27T09:56:05.837Z,1.90
2019-04-27T09:58:34.290Z,1.40
2019-04-27T10:01:02.475Z,1.70
2019-04-27T10:03:30.686Z,1.43
2019-04-27T10:05:58.866Z,1.07
2019-04-27T10:08:27.366Z,1.30
2019-04-27T10:10:56.691Z,1.00
2019-04-27T10:13:25.670Z,1.80
2019-04-27T10:15:54.934Z,1.67
2019-04-27T10:18:23.135Z,1.50
2019-04-27T10:20:59.685Z,1.23
2019-04-27T10:23:21.226Z,2.00
2019-04-27T10:25:49.703Z,2.07
2019-04-27T10:28:17.916Z,2.87
2019-04-27T10:30:46.354Z,2.03
2019-04-27T10:33:16.113Z,2.00
2019-04-27T10:35:44.484Z,2.03
2019-04-27T10:38:12.690Z,2.30
2019-04-27T10:40:40.868Z,2.07
2019-04-27T10:43:09.074Z,1.93
2019-04-27T10:45:37.927Z,2.00
2019-04-27T10:48:06.638Z,2.20
2019-04-27T10:50:36.433Z,2.17
2019-04-27T10:53:06.821Z,2.73
2019-04-27T10:55:36.267Z,2.10
2019-04-27T10:58:05.209Z,2.43
2019-04-27T11:00:41.436Z,2.07
2019-04-27T11:03:09.906Z,2.30
2019-04-27T11:05:49.250Z,2.17
2019-04-27T11:08:17.453Z,2.40
2019-04-27T11:10:46.213Z,2.20
2019-04-27T11:13:16.364Z,2.27
2019-04-27T11:15:46.106Z,2.63
2019-04-27T11:18:16.541Z,2.33
2019-04-27T11:20:44.402Z,2.40
2019-04-27T11:23:12.606Z,2.27
2019-04-27T11:25:40.782Z,2.60
2019-04-27T11:28:08.988Z,2.20
2019-04-27T11:30:37.527Z,2.23
2019-04-27T11:33:06.328Z,2.17
2019-04-27T11:35:46.970Z,2.33
2019-04-27T11:38:16.759Z,2.00
2019-04-27T11:40:46.629Z,1.77
2019-04-27T11:43:16.086Z,2.50
2019-04-27T11:45:45.732Z,1.70
2019-04-27T11:48:16.007Z,2.00
2019-04-27T11:50:45.724Z,2.17
2019-04-27T11:53:22.089Z,2.50
2019-04-27T11:55:43.934Z,1.90
2019-04-27T11:58:12.146Z,1.83
2019-04-27T12:00:40.313Z,2.00
2019-04-27T12:03:08.859Z,1.97
2019-04-27T12:05:37.338Z,1.97
2019-04-27T12:08:06.245Z,2.17
2019-04-27T12:10:36.217Z,2.00
2019-04-27T12:13:05.426Z,1.87
2019-04-27T12:15:36.216Z,1.80
2019-04-27T12:18:08.902Z,1.93
2019-04-27T12:20:35.877Z,1.70
2019-04-27T12:23:06.355Z,1.90
2019-04-27T12:25:37.032Z,1.80
2019-04-27T12:28:11.689Z,1.80
2019-04-27T12:30:47.849Z,1.80
2019-04-27T12:33:16.053Z,1.90
2019-04-27T12:35:44.271Z,1.43
2019-04-27T12:38:12.472Z,1.30
2019-04-27T12:40:40.666Z,1.20
2019-04-27T12:43:09.127Z,1.40
2019-04-27T12:45:40.299Z,0.80
2019-04-27T12:48:07.926Z,1.00
2019-04-27T12:50:36.264Z,1.20
2019-04-27T12:53:06.070Z,1.03
2019-04-27T12:55:51.613Z,0.90
2019-04-27T12:58:39.438Z,1.00
2019-04-27T13:01:12.242Z,0.90
2019-04-27T13:03:40.454Z,1.00
2019-04-27T13:06:08.618Z,1.00
2019-04-27T13:08:37.135Z,1.03
2019-04-27T13:11:05.986Z,1.20
2019-04-27T13:13:34.606Z,1.10
2019-04-27T13:16:02.802Z,1.30
2019-04-27T13:18:31.017Z,1.37
2019-04-27T13:20:59.199Z,2.00
2019-04-27T13:23:28.560Z,1.87
2019-04-27T13:25:56.852Z,1.50
2019-04-27T13:28:25.655Z,1.30
2019-04-27T13:30:55.861Z,1.77
2019-04-27T13:33:24.231Z,1.53
2019-04-27T13:35:52.770Z,1.53
2019-04-27T13:38:20.970Z,1.37
2019-04-27T13:41:07.432Z,1.60
2019-04-27T13:43:37.039Z,2.00
2019-04-27T13:46:11.022Z,2.10
2019-04-27T13:48:57.064Z,2.03
2019-04-27T13:51:36.034Z,1.67
2019-04-27T13:54:14.579Z,1.70
2019-04-27T13:56:34.411Z,1.93
2019-04-27T13:59:03.362Z,1.93
2019-04-27T14:01:33.721Z,1.87
2019-04-27T14:04:01.919Z,2.00
2019-04-27T14:06:30.210Z,1.57
2019-04-27T14:08:58.864Z,1.90
2019-04-27T14:11:28.936Z,1.73
2019-04-27T14:13:57.269Z,2.50
2019-04-27T14:16:25.445Z,1.70
2019-04-27T14:18:53.651Z,1.80
2019-04-27T14:21:23.032Z,1.87
2019-04-27T14:23:51.284Z,1.50
2019-04-27T14:26:19.486Z,1.50
2019-04-27T14:28:48.120Z,1.07
2019-04-27T14:31:18.926Z,2.10
2019-04-27T14:33:48.445Z,1.60
2019-04-27T14:36:18.265Z,1.10
2019-04-27T14:38:47.982Z,1.00
2019-04-27T14:41:16.994Z,1.10
2019-04-27T14:43:45.175Z,1.67
2019-04-27T14:46:13.369Z,2.10
2019-04-27T14:48:41.874Z,2.70
2019-04-27T14:51:10.086Z,1.63
2019-04-27T14:53:38.632Z,1.70
2019-04-27T14:56:08.708Z,1.40
2019-04-27T14:58:36.902Z,1.10
2019-04-27T15:01:05.501Z,0.93
2019-04-27T15:03:33.989Z,1.10
2019-04-27T15:06:02.176Z,1.40
2019-04-27T15:08:30.373Z,1.40
2019-04-27T15:10:58.622Z,1.30
2019-04-27T15:13:26.839Z,1.40
2019-04-27T15:15:55.043Z,1.43
2019-04-27T15:18:24.968Z,0.90
2019-04-27T15:20:53.131Z,1.20
2019-04-27T15:23:21.330Z,1.23
2019-04-27T15:25:50.083Z,1.40
2019-04-27T15:28:22.831Z,1.10
2019-04-27T15:30:59.544Z,2.27
2019-04-27T15:33:46.735Z,2.33
2019-04-27T15:36:33.786Z,1.73
2019-04-27T15:39:03.912Z,2.10
2019-04-27T15:41:48.653Z,2.10
2019-04-27T15:44:18.768Z,2.00
2019-04-27T15:46:47.927Z,1.83
2019-04-27T15:49:17.881Z,1.80
2019-04-27T15:51:46.278Z,1.57
2019-04-27T15:54:14.466Z,1.90
2019-04-27T15:56:42.664Z,2.37
2019-04-27T15:59:10.917Z,2.07
2019-04-27T16:01:39.701Z,2.03
2019-04-27T16:04:11.156Z,1.73
2019-04-27T16:06:38.502Z,2.00
2019-04-27T16:09:10.218Z,1.53
2019-04-27T16:11:38.727Z,2.47
2019-04-27T16:14:07.831Z,1.70
2019-04-27T16:16:38.512Z,1.70
2019-04-27T16:19:08.847Z,1.70
2019-04-27T16:21:41.512Z,1.70
2019-04-27T16:24:06.286Z,2.03
2019-04-27T16:26:34.492Z,1.67
2019-04-27T16:29:02.672Z,1.40
2019-04-27T16:31:32.851Z,1.87
2019-04-27T16:34:02.866Z,2.03
2019-04-27T16:36:31.189Z,2.10
2019-04-27T16:39:10.009Z,2.53
2019-04-27T16:41:41.796Z,1.80
2019-04-27T16:44:10.753Z,1.97
2019-04-27T16:46:39.503Z,2.50
2019-04-27T16:49:13.980Z,2.50
2019-04-27T16:51:40.324Z,2.77
2019-04-27T16:56:38.338Z,2.23
2019-04-27T16:59:33.891Z,2.10
2019-04-27T17:01:41.766Z,1.90
2019-04-27T17:04:10.521Z,2.23
2019-04-27T17:06:40.762Z,1.90
2019-04-27T17:09:09.491Z,1.67
2019-04-27T17:11:38.802Z,2.10
2019-04-27T17:12:40.067Z,2.20
2019-04-27T17:14:08.483Z,2.20
2019-04-27T17:16:41.051Z,1.73
2019-04-27T17:19:16.372Z,2.13
2019-04-27T17:21:44.581Z,2.03
2019-04-27T17:24:14.405Z,2.47
2019-04-27T17:26:43.746Z,2.37
2019-04-27T17:29:20.274Z,2.13
2019-04-27T17:31:50.562Z,2.27
2019-04-27T17:34:18.972Z,2.20
2019-04-27T17:36:54.464Z,2.33
2019-04-27T17:39:19.267Z,1.80
2019-04-27T17:41:50.564Z,2.50
2019-04-27T17:44:22.775Z,2.40
2019-04-27T17:46:51.164Z,2.20
2019-04-27T17:49:18.919Z,2.30
2019-04-27T17:51:48.432Z,2.37
2019-04-27T17:54:18.182Z,2.00
2019-04-27T17:56:50.999Z,2.13
2019-04-27T17:59:18.604Z,2.30
2019-04-27T18:01:46.359Z,1.90
2019-04-27T18:04:14.882Z,1.93
2019-04-27T18:06:43.091Z,1.80
2019-04-27T18:09:12.933Z,2.13
2019-04-27T18:11:41.144Z,2.13
2019-04-27T18:14:12.993Z,2.37
2019-04-27T18:16:39.276Z,2.07
2019-04-27T18:19:11.737Z,2.17
2019-04-27T18:21:40.742Z,2.30
2019-04-27T18:24:10.562Z,2.17
2019-04-27T18:27:00.787Z,2.50
2019-04-27T18:29:22.762Z,2.03
2019-04-27T18:31:54.622Z,1.90
2019-04-27T18:34:22.751Z,1.90
2019-04-27T18:36:50.939Z,2.87
2019-04-27T18:39:19.149Z,1.90
2019-04-27T18:41:50.589Z,1.83
2019-04-27T18:44:19.137Z,2.17
2019-04-27T18:46:48.908Z,2.00
2019-04-27T18:49:22.638Z,2.10
2019-04-27T18:52:11.026Z,2.30
2019-04-27T18:54:41.995Z,2.40
2019-04-27T18:57:10.873Z,2.20
2019-04-27T18:59:39.094Z,2.07
2019-04-27T19:02:08.440Z,2.10
2019-04-27T19:04:37.184Z,2.20
2019-04-27T19:07:05.675Z,4.00
2019-04-27T19:09:33.884Z,1.97
2019-04-27T19:12:02.070Z,2.20
2019-04-27T19:14:30.600Z,1.60
2019-04-27T19:16:58.881Z,1.87
2019-04-27T19:19:28.020Z,1.90
2019-04-27T19:21:56.452Z,2.60
2019-04-27T19:24:24.639Z,1.93
2019-04-27T19:26:54.733Z,2.33
2019-04-27T19:29:24.589Z,2.10
2019-04-27T19:32:00.134Z,2.60
2019-04-27T19:34:28.713Z,2.93
2019-04-27T19:36:59.071Z,2.60
2019-04-27T19:39:28.581Z,2.43
2019-04-27T19:42:01.402Z,3.10
2019-04-27T19:44:29.005Z,2.50
2019-04-27T19:46:57.426Z,4.67
2019-04-27T19:49:25.916Z,6.77
2019-04-27T19:51:54.111Z,3.10
2019-04-27T19:54:22.317Z,3.30
2019-04-27T19:56:50.528Z,4.70
2019-04-27T19:59:20.395Z,15.07
2019-04-27T20:01:50.149Z,3.57
2019-04-27T20:04:30.592Z,3.40
2019-04-27T20:06:58.707Z,2.90
2019-04-27T20:09:44.552Z,2.77
2019-04-27T20:12:13.759Z,3.00
2019-04-27T20:14:57.356Z,2.40
2019-04-27T20:17:26.874Z,2.73
2019-04-27T20:19:56.185Z,2.40
2019-04-27T20:22:24.512Z,4.57
2019-04-27T20:24:52.861Z,12.40
2019-04-27T20:27:21.241Z,8.17
2019-04-27T20:29:50.020Z,7.40
2019-04-27T20:32:18.211Z,5.63
2019-04-27T20:34:46.422Z,4.83
2019-04-27T20:37:14.949Z,4.30
2019-04-27T20:39:43.152Z,4.63
2019-04-27T20:42:12.614Z,4.23
2019-04-27T20:44:41.299Z,3.33
2019-04-27T20:47:10.201Z,3.10
2019-04-27T20:49:38.383Z,3.60
2019-04-27T20:52:17.306Z,3.40
2019-04-27T20:54:45.483Z,3.43
2019-04-27T20:57:13.691Z,3.23
2019-04-27T20:59:41.870Z,3.70
2019-04-27T21:02:29.723Z,3.90
2019-04-27T21:05:02.190Z,3.80
2019-04-27T21:07:43.951Z,3.87
2019-04-27T21:10:12.303Z,3.93
2019-04-27T21:12:41.550Z,3.90
2019-04-27T21:15:11.291Z,4.03
2019-04-27T21:17:40.675Z,4.33
2019-04-27T21:20:11.412Z,3.60
2019-04-27T21:22:41.282Z,3.17
2019-04-27T21:25:11.705Z,3.20
2019-04-27T21:27:41.114Z,2.97
2019-04-27T21:30:11.249Z,3.60
2019-04-27T21:32:40.093Z,3.27
2019-04-27T21:35:10.916Z,3.40
2019-04-27T21:37:40.917Z,2.83
2019-04-27T21:40:14.771Z,3.13
2019-04-27T21:42:43.221Z,3.10
2019-04-27T21:45:11.764Z,3.40
2019-04-27T21:47:41.344Z,3.60
2019-04-27T21:50:11.955Z,3.17
2019-04-27T21:53:00.604Z,3.83
2019-04-27T21:55:31.390Z,3.10
2019-04-27T21:58:01.483Z,2.70
2019-04-27T22:00:43.019Z,3.00
2019-04-27T22:03:13.300Z,3.47
2019-04-27T22:05:41.826Z,2.70
2019-04-27T22:08:11.784Z,3.00
2019-04-27T22:10:40.286Z,3.40
2019-04-27T22:13:08.493Z,3.30
2019-04-27T22:15:36.684Z,3.03
2019-04-27T22:18:04.936Z,3.03
2019-04-27T22:20:33.795Z,2.90
2019-04-27T22:23:22.975Z,3.87
2019-04-27T22:25:54.130Z,3.70
2019-04-27T22:28:20.702Z,2.63
2019-04-27T22:30:48.908Z,2.83
2019-04-27T22:33:17.442Z,2.93
2019-04-27T22:35:45.922Z,4.03
2019-04-27T22:38:14.402Z,3.00
2019-04-27T22:40:44.518Z,3.07
2019-04-27T22:43:31.550Z,3.30
2019-04-27T22:46:01.903Z,3.40
2019-04-27T22:48:31.401Z,2.83
2019-04-27T22:51:01.602Z,3.10
2019-04-27T22:53:30.647Z,3.10
2019-04-27T22:56:11.433Z,3.67
2019-04-27T22:58:42.591Z,2.97
2019-04-27T23:01:18.964Z,2.87
2019-04-27T23:03:49.087Z,3.03
2019-04-27T23:06:17.665Z,2.93
2019-04-27T23:08:46.247Z,2.90
2019-04-27T23:11:14.828Z,3.20
2019-04-27T23:13:43.092Z,3.13
2019-04-27T23:16:13.220Z,3.17
2019-04-27T23:18:41.482Z,3.03
2019-04-27T23:21:11.787Z,2.97
2019-04-27T23:23:41.366Z,2.87
2019-04-27T23:26:11.836Z,2.90
2019-04-27T23:28:41.348Z,2.70
2019-04-27T23:31:11.371Z,3.67
2019-04-27T23:33:42.243Z,3.40
2019-04-27T23:36:11.480Z,3.03
2019-04-27T23:38:40.814Z,3.30
2019-04-27T23:41:09.488Z,3.00
2019-04-27T23:43:37.745Z,3.00
2019-04-27T23:46:06.240Z,3.27
2019-04-27T23:48:34.831Z,3.10
2019-04-27T23:51:13.380Z,3.67
2019-04-27T23:53:41.823Z,3.33
2019-04-27T23:56:10.151Z,3.17
2019-04-27T23:58:38.895Z,3.30
